sensor_id;sensor_type;location;lat;lon;timestamp;pressure;altitude;pressure_sealevel;temperature;humidity
68193;BME280;55012;47.562;18.414;2023-03-03T00:00:43;99697.25;;;2.65;100.00
68193;BME280;55012;47.562;18.414;2023-03-03T00:03:11;99707.38;;;2.68;100.00
68193;BME280;55012;47.562;18.414;2023-03-03T00:05:39;99701.75;;;2.70;100.00
68193;BME280;55012;47.562;18.414;2023-03-03T00:08:05;99713.81;;;2.67;100.00
68193;BME280;55012;47.562;18.414;2023-03-03T00:10:30;99707.13;;;2.65;100.00
68193;BME280;55012;47.562;18.414;2023-03-03T00:12:56;99714.09;;;2.66;100.00
68193;BME280;55012;47.562;18.414;2023-03-03T00:15:23;99717.81;;;2.65;100.00
68193;BME280;55012;47.562;18.414;2023-03-03T00:17:50;99716.22;;;2.64;100.00
68193;BME280;55012;47.562;18.414;2023-03-03T00:23:06;99712.25;;;2.61;100.00
68193;BME280;55012;47.562;18.414;2023-03-03T00:25:40;99708.56;;;2.57;100.00
68193;BME280;55012;47.562;18.414;2023-03-03T00:30:43;99704.25;;;2.56;100.00
68193;BME280;55012;47.562;18.414;2023-03-03T00:33:33;99709.59;;;2.56;100.00
68193;BME280;55012;47.562;18.414;2023-03-03T00:38:41;99703.03;;;2.48;100.00
68193;BME280;55012;47.562;18.414;2023-03-03T00:41:24;99709.16;;;2.49;100.00
68193;BME280;55012;47.562;18.414;2023-03-03T00:43:51;99706.47;;;2.49;100.00
68193;BME280;55012;47.562;18.414;2023-03-03T00:46:19;99707.03;;;2.46;100.00
68193;BME280;55012;47.562;18.414;2023-03-03T00:48:45;99708.91;;;2.45;100.00
68193;BME280;55012;47.562;18.414;2023-03-03T00:53:45;99712.44;;;2.41;100.00
68193;BME280;55012;47.562;18.414;2023-03-03T00:56:10;99717.22;;;2.39;100.00
68193;BME280;55012;47.562;18.414;2023-03-03T00:58:36;99712.97;;;2.38;100.00
68193;BME280;55012;47.562;18.414;2023-03-03T01:01:01;99717.22;;;2.39;100.00
68193;BME280;55012;47.562;18.414;2023-03-03T01:03:27;99719.63;;;2.40;100.00
68193;BME280;55012;47.562;18.414;2023-03-03T01:05:53;99719.34;;;2.42;100.00
68193;BME280;55012;47.562;18.414;2023-03-03T01:08:19;99722.03;;;2.42;100.00
68193;BME280;55012;47.562;18.414;2023-03-03T01:10:55;99726.78;;;2.45;100.00
68193;BME280;55012;47.562;18.414;2023-03-03T01:13:25;99732.94;;;2.45;100.00
68193;BME280;55012;47.562;18.414;2023-03-03T01:15:51;99723.31;;;2.44;100.00
68193;BME280;55012;47.562;18.414;2023-03-03T01:18:17;99722.25;;;2.45;100.00
68193;BME280;55012;47.562;18.414;2023-03-03T01:20:42;99726.00;;;2.44;100.00
68193;BME280;55012;47.562;18.414;2023-03-03T01:23:08;99729.72;;;2.48;100.00
68193;BME280;55012;47.562;18.414;2023-03-03T01:25:34;99725.41;;;2.52;100.00
68193;BME280;55012;47.562;18.414;2023-03-03T01:28:00;99724.28;;;2.59;100.00
68193;BME280;55012;47.562;18.414;2023-03-03T01:30:26;99726.69;;;2.60;100.00
68193;BME280;55012;47.562;18.414;2023-03-03T01:32:51;99720.75;;;2.63;100.00
68193;BME280;55012;47.562;18.414;2023-03-03T01:35:17;99715.97;;;2.65;100.00
68193;BME280;55012;47.562;18.414;2023-03-03T01:37:43;99708.97;;;2.69;100.00
68193;BME280;55012;47.562;18.414;2023-03-03T01:40:22;99705.72;;;2.72;100.00
68193;BME280;55012;47.562;18.414;2023-03-03T01:42:48;99701.94;;;2.78;100.00
68193;BME280;55012;47.562;18.414;2023-03-03T01:45:24;99699.50;;;2.82;100.00
68193;BME280;55012;47.562;18.414;2023-03-03T01:48:04;99689.09;;;2.80;100.00
68193;BME280;55012;47.562;18.414;2023-03-03T01:50:41;99675.78;;;2.75;100.00
68193;BME280;55012;47.562;18.414;2023-03-03T01:53:14;99673.41;;;2.74;100.00
68193;BME280;55012;47.562;18.414;2023-03-03T01:55:42;99679.25;;;2.76;100.00
68193;BME280;55012;47.562;18.414;2023-03-03T01:58:17;99675.50;;;2.77;100.00
68193;BME280;55012;47.562;18.414;2023-03-03T02:00:49;99683.75;;;2.80;100.00
68193;BME280;55012;47.562;18.414;2023-03-03T02:03:20;99686.34;;;2.91;100.00
68193;BME280;55012;47.562;18.414;2023-03-03T02:05:48;99689.19;;;2.99;100.00
68193;BME280;55012;47.562;18.414;2023-03-03T02:08:16;99710.41;;;3.15;100.00
68193;BME280;55012;47.562;18.414;2023-03-03T02:10:45;99700.09;;;3.27;100.00
68193;BME280;55012;47.562;18.414;2023-03-03T02:13:11;99697.09;;;3.33;100.00
68193;BME280;55012;47.562;18.414;2023-03-03T02:15:36;99680.47;;;3.36;100.00
68193;BME280;55012;47.562;18.414;2023-03-03T02:18:16;99666.47;;;3.45;100.00
68193;BME280;55012;47.562;18.414;2023-03-03T02:26:27;99618.97;;;3.55;100.00
68193;BME280;55012;47.562;18.414;2023-03-03T02:28:53;99604.53;;;3.56;100.00
68193;BME280;55012;47.562;18.414;2023-03-03T02:31:24;99591.97;;;3.57;100.00
68193;BME280;55012;47.562;18.414;2023-03-03T02:33:51;99581.16;;;3.62;100.00
68193;BME280;55012;47.562;18.414;2023-03-03T02:36:25;99568.28;;;3.64;100.00
68193;BME280;55012;47.562;18.414;2023-03-03T02:41:46;99556.94;;;3.72;100.00
68193;BME280;55012;47.562;18.414;2023-03-03T02:44:19;99545.97;;;3.74;100.00
68193;BME280;55012;47.562;18.414;2023-03-03T02:46:46;99546.44;;;3.76;100.00
68193;BME280;55012;47.562;18.414;2023-03-03T02:49:14;99532.56;;;3.74;100.00
68193;BME280;55012;47.562;18.414;2023-03-03T02:51:41;99537.81;;;3.79;100.00
68193;BME280;55012;47.562;18.414;2023-03-03T02:54:08;99532.72;;;3.82;100.00
68193;BME280;55012;47.562;18.414;2023-03-03T02:56:34;99538.75;;;3.88;100.00
68193;BME280;55012;47.562;18.414;2023-03-03T02:59:00;99537.09;;;3.92;100.00
68193;BME280;55012;47.562;18.414;2023-03-03T03:01:25;99537.28;;;3.95;100.00
68193;BME280;55012;47.562;18.414;2023-03-03T03:03:51;99529.97;;;4.01;100.00
68193;BME280;55012;47.562;18.414;2023-03-03T03:06:17;99538.41;;;4.08;100.00
68193;BME280;55012;47.562;18.414;2023-03-03T03:08:42;99526.03;;;4.12;100.00
68193;BME280;55012;47.562;18.414;2023-03-03T03:11:08;99527.03;;;4.16;100.00
68193;BME280;55012;47.562;18.414;2023-03-03T03:13:33;99531.00;;;4.19;100.00
68193;BME280;55012;47.562;18.414;2023-03-03T03:15:59;99526.44;;;4.19;100.00
68193;BME280;55012;47.562;18.414;2023-03-03T03:18:26;99519.78;;;4.17;100.00
68193;BME280;55012;47.562;18.414;2023-03-03T03:20:52;99514.75;;;4.15;100.00
68193;BME280;55012;47.562;18.414;2023-03-03T03:23:17;99507.81;;;4.14;100.00
68193;BME280;55012;47.562;18.414;2023-03-03T03:25:43;99507.81;;;4.14;100.00
68193;BME280;55012;47.562;18.414;2023-03-03T03:28:12;99505.22;;;4.09;100.00
68193;BME280;55012;47.562;18.414;2023-03-03T03:30:38;99502.34;;;4.06;100.00
68193;BME280;55012;47.562;18.414;2023-03-03T03:33:04;99497.06;;;4.01;100.00
68193;BME280;55012;47.562;18.414;2023-03-03T03:35:30;99503.22;;;4.01;100.00
68193;BME280;55012;47.562;18.414;2023-03-03T03:37:56;99507.97;;;4.04;100.00
68193;BME280;55012;47.562;18.414;2023-03-03T03:40:21;99516.09;;;4.13;100.00
68193;BME280;55012;47.562;18.414;2023-03-03T03:42:47;99518.91;;;4.21;100.00
68193;BME280;55012;47.562;18.414;2023-03-03T03:45:12;99524.88;;;4.32;100.00
68193;BME280;55012;47.562;18.414;2023-03-03T03:47:40;99517.81;;;4.36;100.00
68193;BME280;55012;47.562;18.414;2023-03-03T03:50:07;99513.78;;;4.39;100.00
68193;BME280;55012;47.562;18.414;2023-03-03T03:52:33;99510.09;;;4.35;100.00
68193;BME280;55012;47.562;18.414;2023-03-03T03:54:59;99509.13;;;4.31;100.00
68193;BME280;55012;47.562;18.414;2023-03-03T03:57:24;99506.72;;;4.29;100.00
68193;BME280;55012;47.562;18.414;2023-03-03T03:59:50;99505.13;;;4.28;100.00
68193;BME280;55012;47.562;18.414;2023-03-03T04:02:15;99503.84;;;4.26;100.00
68193;BME280;55012;47.562;18.414;2023-03-03T04:04:41;99513.66;;;4.30;100.00
68193;BME280;55012;47.562;18.414;2023-03-03T04:07:06;99517.94;;;4.31;100.00
68193;BME280;55012;47.562;18.414;2023-03-03T04:09:31;99522.59;;;4.39;100.00
68193;BME280;55012;47.562;18.414;2023-03-03T04:11:57;99523.59;;;4.43;100.00
68193;BME280;55012;47.562;18.414;2023-03-03T04:14:23;99528.34;;;4.46;100.00
68193;BME280;55012;47.562;18.414;2023-03-03T04:16:48;99532.53;;;4.53;100.00
68193;BME280;55012;47.562;18.414;2023-03-03T04:19:14;99531.44;;;4.54;100.00
68193;BME280;55012;47.562;18.414;2023-03-03T04:21:39;99527.97;;;4.53;100.00
68193;BME280;55012;47.562;18.414;2023-03-03T04:24:05;99520.53;;;4.50;100.00
68193;BME280;55012;47.562;18.414;2023-03-03T04:26:30;99508.53;;;4.47;100.00
68193;BME280;55012;47.562;18.414;2023-03-03T04:28:56;99502.94;;;4.44;100.00
68193;BME280;55012;47.562;18.414;2023-03-03T04:31:23;99489.56;;;4.44;100.00
68193;BME280;55012;47.562;18.414;2023-03-03T04:33:50;99487.38;;;4.46;100.00
68193;BME280;55012;47.562;18.414;2023-03-03T04:36:16;99483.31;;;4.48;100.00
68193;BME280;55012;47.562;18.414;2023-03-03T04:38:42;99481.31;;;4.54;100.00
68193;BME280;55012;47.562;18.414;2023-03-03T04:41:07;99479.44;;;4.55;100.00
68193;BME280;55012;47.562;18.414;2023-03-03T04:43:32;99474.47;;;4.62;100.00
68193;BME280;55012;47.562;18.414;2023-03-03T04:45:58;99469.31;;;4.65;100.00
68193;BME280;55012;47.562;18.414;2023-03-03T04:48:23;99461.47;;;4.69;100.00
68193;BME280;55012;47.562;18.414;2023-03-03T04:50:49;99457.69;;;4.70;100.00
68193;BME280;55012;47.562;18.414;2023-03-03T04:53:14;99449.94;;;4.68;100.00
68193;BME280;55012;47.562;18.414;2023-03-03T04:55:40;99443.19;;;4.71;100.00
68193;BME280;55012;47.562;18.414;2023-03-03T04:58:06;99444.28;;;4.70;100.00
68193;BME280;55012;47.562;18.414;2023-03-03T05:00:33;99435.47;;;4.69;100.00
68193;BME280;55012;47.562;18.414;2023-03-03T05:02:58;99434.66;;;4.69;100.00
68193;BME280;55012;47.562;18.414;2023-03-03T05:05:24;99430.41;;;4.68;100.00
68193;BME280;55012;47.562;18.414;2023-03-03T05:07:49;99423.78;;;4.65;100.00
68193;BME280;55012;47.562;18.414;2023-03-03T05:10:15;99417.63;;;4.65;100.00
68193;BME280;55012;47.562;18.414;2023-03-03T05:12:40;99414.94;;;4.65;100.00
68193;BME280;55012;47.562;18.414;2023-03-03T05:15:06;99406.59;;;4.66;100.00
68193;BME280;55012;47.562;18.414;2023-03-03T05:17:32;99396.66;;;4.67;100.00
68193;BME280;55012;47.562;18.414;2023-03-03T05:19:57;99418.28;;;4.70;100.00
68193;BME280;55012;47.562;18.414;2023-03-03T05:22:23;99408.34;;;4.71;100.00
68193;BME280;55012;47.562;18.414;2023-03-03T05:24:49;99407.56;;;4.70;100.00
68193;BME280;55012;47.562;18.414;2023-03-03T05:27:15;99402.19;;;4.70;100.00
68193;BME280;55012;47.562;18.414;2023-03-03T05:29:41;99405.97;;;4.69;100.00
68193;BME280;55012;47.562;18.414;2023-03-03T05:32:06;99407.06;;;4.68;100.00
68193;BME280;55012;47.562;18.414;2023-03-03T05:34:31;99405.66;;;4.71;100.00
68193;BME280;55012;47.562;18.414;2023-03-03T05:36:57;99411.66;;;4.68;100.00
68193;BME280;55012;47.562;18.414;2023-03-03T05:39:22;99409.28;;;4.66;100.00
68193;BME280;55012;47.562;18.414;2023-03-03T05:41:48;99424.25;;;4.67;100.00
68193;BME280;55012;47.562;18.414;2023-03-03T05:44:13;99433.38;;;4.66;100.00
68193;BME280;55012;47.562;18.414;2023-03-03T05:46:39;99426.94;;;4.67;100.00
68193;BME280;55012;47.562;18.414;2023-03-03T05:49:04;99434.09;;;4.72;100.00
68193;BME280;55012;47.562;18.414;2023-03-03T05:51:30;99435.06;;;4.76;100.00
68193;BME280;55012;47.562;18.414;2023-03-03T05:53:55;99430.88;;;4.84;100.00
68193;BME280;55012;47.562;18.414;2023-03-03T05:56:20;99430.47;;;4.90;100.00
68193;BME280;55012;47.562;18.414;2023-03-03T05:58:46;99426.84;;;4.95;100.00
68193;BME280;55012;47.562;18.414;2023-03-03T06:01:11;99428.50;;;5.04;100.00
68193;BME280;55012;47.562;18.414;2023-03-03T06:03:37;99425.94;;;5.13;100.00
68193;BME280;55012;47.562;18.414;2023-03-03T06:06:03;99430.84;;;5.20;100.00
68193;BME280;55012;47.562;18.414;2023-03-03T06:08:28;99428.66;;;5.22;100.00
68193;BME280;55012;47.562;18.414;2023-03-03T06:10:56;99424.28;;;5.26;100.00
68193;BME280;55012;47.562;18.414;2023-03-03T06:13:21;99418.28;;;5.29;100.00
68193;BME280;55012;47.562;18.414;2023-03-03T06:15:47;99413.72;;;5.29;100.00
68193;BME280;55012;47.562;18.414;2023-03-03T06:18:12;99409.16;;;5.30;100.00
68193;BME280;55012;47.562;18.414;2023-03-03T06:20:38;99403.81;;;5.30;100.00
68193;BME280;55012;47.562;18.414;2023-03-03T06:23:04;99410.91;;;5.34;100.00
68193;BME280;55012;47.562;18.414;2023-03-03T06:25:29;99403.06;;;5.38;100.00
68193;BME280;55012;47.562;18.414;2023-03-03T06:27:55;99405.28;;;5.45;100.00
68193;BME280;55012;47.562;18.414;2023-03-03T06:30:21;99405.19;;;5.50;100.00
68193;BME280;55012;47.562;18.414;2023-03-03T06:32:46;99404.44;;;5.58;100.00
68193;BME280;55012;47.562;18.414;2023-03-03T06:35:12;99404.78;;;5.65;100.00
68193;BME280;55012;47.562;18.414;2023-03-03T06:37:37;99404.66;;;5.70;100.00
68193;BME280;55012;47.562;18.414;2023-03-03T06:40:04;99412.75;;;5.79;100.00
68193;BME280;55012;47.562;18.414;2023-03-03T06:42:30;99402.19;;;5.82;100.00
68193;BME280;55012;47.562;18.414;2023-03-03T06:44:55;99403.34;;;5.90;100.00
68193;BME280;55012;47.562;18.414;2023-03-03T06:47:21;99406.09;;;5.99;100.00
68193;BME280;55012;47.562;18.414;2023-03-03T06:49:46;99397.59;;;6.05;100.00
68193;BME280;55012;47.562;18.414;2023-03-03T06:52:14;99406.47;;;6.14;100.00
68193;BME280;55012;47.562;18.414;2023-03-03T06:54:42;99399.03;;;6.20;100.00
68193;BME280;55012;47.562;18.414;2023-03-03T06:57:26;99394.44;;;6.20;100.00
68193;BME280;55012;47.562;18.414;2023-03-03T06:59:54;99395.91;;;6.27;100.00
68193;BME280;55012;47.562;18.414;2023-03-03T07:02:20;99393.22;;;6.27;100.00
68193;BME280;55012;47.562;18.414;2023-03-03T07:04:46;99401.16;;;6.32;100.00
68193;BME280;55012;47.562;18.414;2023-03-03T07:07:25;99393.56;;;6.34;100.00
68193;BME280;55012;47.562;18.414;2023-03-03T07:09:54;99391.00;;;6.29;100.00
68193;BME280;55012;47.562;18.414;2023-03-03T07:12:25;99400.16;;;6.19;100.00
68193;BME280;55012;47.562;18.414;2023-03-03T07:14:55;99396.47;;;6.06;100.00
68193;BME280;55012;47.562;18.414;2023-03-03T07:17:24;99408.44;;;5.91;100.00
68193;BME280;55012;47.562;18.414;2023-03-03T07:19:49;99404.56;;;5.84;100.00
68193;BME280;55012;47.562;18.414;2023-03-03T07:24:44;99407.06;;;5.72;100.00
68193;BME280;55012;47.562;18.414;2023-03-03T07:27:18;99408.94;;;5.71;100.00
68193;BME280;55012;47.562;18.414;2023-03-03T07:29:49;99410.22;;;5.74;100.00
68193;BME280;55012;47.562;18.414;2023-03-03T07:32:25;99413.50;;;5.71;100.00
68193;BME280;55012;47.562;18.414;2023-03-03T07:34:53;99412.41;;;5.72;100.00
68193;BME280;55012;47.562;18.414;2023-03-03T07:37:29;99415.44;;;5.79;100.00
68193;BME280;55012;47.562;18.414;2023-03-03T07:39:56;99415.19;;;5.89;100.00
68193;BME280;55012;47.562;18.414;2023-03-03T07:42:27;99413.19;;;6.03;100.00
68193;BME280;55012;47.562;18.414;2023-03-03T07:44:58;99409.50;;;6.22;100.00
68193;BME280;55012;47.562;18.414;2023-03-03T07:47:27;99398.00;;;6.38;100.00
68193;BME280;55012;47.562;18.414;2023-03-03T07:49:55;99407.34;;;6.50;100.00
68193;BME280;55012;47.562;18.414;2023-03-03T07:57:44;99404.53;;;6.63;100.00
68193;BME280;55012;47.562;18.414;2023-03-03T08:02:44;99405.34;;;6.98;100.00
68193;BME280;55012;47.562;18.414;2023-03-03T08:05:39;99395.38;;;7.16;100.00
68193;BME280;55012;47.562;18.414;2023-03-03T08:10:42;99398.38;;;7.23;100.00
68193;BME280;55012;47.562;18.414;2023-03-03T08:16:24;99390.47;;;7.10;100.00
68193;BME280;55012;47.562;18.414;2023-03-03T08:18:49;99390.31;;;7.06;100.00
68193;BME280;55012;47.562;18.414;2023-03-03T08:21:25;99389.19;;;7.07;100.00
68193;BME280;55012;47.562;18.414;2023-03-03T08:23:51;99398.53;;;7.01;100.00
68193;BME280;55012;47.562;18.414;2023-03-03T08:26:21;99403.28;;;7.04;100.00
68193;BME280;55012;47.562;18.414;2023-03-03T08:28:48;99408.34;;;7.14;100.00
68193;BME280;55012;47.562;18.414;2023-03-03T08:31:13;99407.09;;;7.12;100.00
68193;BME280;55012;47.562;18.414;2023-03-03T08:33:39;99406.13;;;7.08;100.00
68193;BME280;55012;47.562;18.414;2023-03-03T08:36:06;99406.44;;;7.06;100.00
68193;BME280;55012;47.562;18.414;2023-03-03T08:38:32;99411.66;;;7.11;100.00
68193;BME280;55012;47.562;18.414;2023-03-03T08:40:57;99412.78;;;7.01;100.00
68193;BME280;55012;47.562;18.414;2023-03-03T08:43:23;99412.94;;;6.96;100.00
68193;BME280;55012;47.562;18.414;2023-03-03T08:45:51;99415.31;;;6.81;100.00
68193;BME280;55012;47.562;18.414;2023-03-03T08:48:17;99409.13;;;6.71;100.00
68193;BME280;55012;47.562;18.414;2023-03-03T08:50:43;99412.28;;;6.73;100.00
68193;BME280;55012;47.562;18.414;2023-03-03T08:53:10;99402.34;;;6.91;100.00
68193;BME280;55012;47.562;18.414;2023-03-03T08:55:36;99409.59;;;6.82;100.00
68193;BME280;55012;47.562;18.414;2023-03-03T08:58:02;99404.69;;;6.75;100.00
68193;BME280;55012;47.562;18.414;2023-03-03T09:00:28;99408.03;;;6.72;100.00
68193;BME280;55012;47.562;18.414;2023-03-03T09:02:53;99400.91;;;6.76;100.00
68193;BME280;55012;47.562;18.414;2023-03-03T09:05:20;99399.66;;;7.00;100.00
68193;BME280;55012;47.562;18.414;2023-03-03T09:07:46;99398.38;;;7.23;100.00
68193;BME280;55012;47.562;18.414;2023-03-03T09:10:17;99407.06;;;7.29;100.00
68193;BME280;55012;47.562;18.414;2023-03-03T09:12:46;99409.91;;;7.32;100.00
68193;BME280;55012;47.562;18.414;2023-03-03T09:15:19;99400.41;;;7.26;100.00
68193;BME280;55012;47.562;18.414;2023-03-03T09:17:46;99395.69;;;7.23;100.00
68193;BME280;55012;47.562;18.414;2023-03-03T09:23:31;99405.97;;;7.21;100.00
68193;BME280;55012;47.562;18.414;2023-03-03T09:25:50;99401.53;;;7.17;100.00
68193;BME280;55012;47.562;18.414;2023-03-03T09:28:27;99406.59;;;7.01;100.00
68193;BME280;55012;47.562;18.414;2023-03-03T09:30:55;99404.38;;;6.68;100.00
68193;BME280;55012;47.562;18.414;2023-03-03T09:33:40;99403.56;;;6.51;100.00
68193;BME280;55012;47.562;18.414;2023-03-03T09:36:26;99408.78;;;6.47;100.00
68193;BME280;55012;47.562;18.414;2023-03-03T09:38:53;99404.97;;;6.39;100.00
68193;BME280;55012;47.562;18.414;2023-03-03T09:57:45;99395.78;;;6.40;100.00
68193;BME280;55012;47.562;18.414;2023-03-03T10:08:32;99392.00;;;6.50;100.00
68193;BME280;55012;47.562;18.414;2023-03-03T10:17:03;99373.88;;;6.82;100.00
68193;BME280;55012;47.562;18.414;2023-03-03T10:19:40;99374.00;;;6.94;100.00
68193;BME280;55012;47.562;18.414;2023-03-03T10:22:16;99372.59;;;7.05;100.00
68193;BME280;55012;47.562;18.414;2023-03-03T10:24:46;99379.84;;;7.22;100.00
68193;BME280;55012;47.562;18.414;2023-03-03T10:38:45;99358.16;;;7.82;100.00
68193;BME280;55012;47.562;18.414;2023-03-03T10:49:16;99364.56;;;8.37;100.00
68193;BME280;55012;47.562;18.414;2023-03-03T10:54:54;99375.34;;;8.37;100.00
68193;BME280;55012;47.562;18.414;2023-03-03T11:05:50;99370.44;;;8.60;100.00
68193;BME280;55012;47.562;18.414;2023-03-03T11:08:31;99367.00;;;8.51;100.00
68193;BME280;55012;47.562;18.414;2023-03-03T11:14:04;99373.06;;;8.48;100.00
68193;BME280;55012;47.562;18.414;2023-03-03T11:32:59;99358.78;;;8.17;100.00
68193;BME280;55012;47.562;18.414;2023-03-03T11:41:02;99332.50;;;8.44;100.00
68193;BME280;55012;47.562;18.414;2023-03-03T11:43:33;99340.47;;;8.61;100.00
68193;BME280;55012;47.562;18.414;2023-03-03T11:46:24;99328.59;;;8.95;100.00
68193;BME280;55012;47.562;18.414;2023-03-03T11:48:58;99316.66;;;9.29;100.00
68193;BME280;55012;47.562;18.414;2023-03-03T11:52:00;99325.59;;;9.54;100.00
68193;BME280;55012;47.562;18.414;2023-03-03T11:54:37;99328.44;;;9.82;100.00
68193;BME280;55012;47.562;18.414;2023-03-03T11:57:19;99350.56;;;9.51;100.00
68193;BME280;55012;47.562;18.414;2023-03-03T12:00:22;99327.84;;;9.52;100.00
68193;BME280;55012;47.562;18.414;2023-03-03T12:14:13;99313.66;;;10.17;100.00
68193;BME280;55012;47.562;18.414;2023-03-03T12:17:20;99338.91;;;10.08;100.00
68193;BME280;55012;47.562;18.414;2023-03-03T12:28:10;99347.25;;;9.79;100.00
68193;BME280;55012;47.562;18.414;2023-03-03T12:33:56;99365.09;;;9.59;100.00
68193;BME280;55012;47.562;18.414;2023-03-03T12:41:49;99341.25;;;9.61;100.00
68193;BME280;55012;47.562;18.414;2023-03-03T12:47:28;99339.78;;;9.76;100.00
68193;BME280;55012;47.562;18.414;2023-03-03T12:53:00;99352.00;;;10.19;100.00
68193;BME280;55012;47.562;18.414;2023-03-03T13:06:22;99359.41;;;10.46;100.00
68193;BME280;55012;47.562;18.414;2023-03-03T13:11:59;99367.75;;;10.41;100.00
68193;BME280;55012;47.562;18.414;2023-03-03T13:24:54;99366.53;;;10.38;100.00
68193;BME280;55012;47.562;18.414;2023-03-03T13:27:25;99361.47;;;10.25;100.00
68193;BME280;55012;47.562;18.414;2023-03-03T13:30:00;99344.31;;;10.33;100.00
68193;BME280;55012;47.562;18.414;2023-03-03T13:32:43;99362.34;;;10.41;100.00
68193;BME280;55012;47.562;18.414;2023-03-03T13:37:55;99359.53;;;10.37;100.00
68193;BME280;55012;47.562;18.414;2023-03-03T13:40:29;99357.19;;;10.36;100.00
68193;BME280;55012;47.562;18.414;2023-03-03T13:43:07;99340.47;;;10.46;100.00
68193;BME280;55012;47.562;18.414;2023-03-03T13:48:20;99355.09;;;10.57;100.00
68193;BME280;55012;47.562;18.414;2023-03-03T13:50:58;99343.97;;;10.47;100.00
68193;BME280;55012;47.562;18.414;2023-03-03T13:53:36;99340.25;;;10.51;100.00
68193;BME280;55012;47.562;18.414;2023-03-03T14:01:54;99343.88;;;10.31;100.00
68193;BME280;55012;47.562;18.414;2023-03-03T14:04:37;99333.63;;;10.12;100.00
68193;BME280;55012;47.562;18.414;2023-03-03T14:07:44;99324.47;;;10.17;100.00
68193;BME280;55012;47.562;18.414;2023-03-03T14:13:00;99312.22;;;10.31;100.00
68193;BME280;55012;47.562;18.414;2023-03-03T14:15:29;99327.44;;;10.24;100.00
68193;BME280;55012;47.562;18.414;2023-03-03T14:20:46;99328.78;;;9.93;100.00
68193;BME280;55012;47.562;18.414;2023-03-03T14:24:06;99337.91;;;9.89;100.00
68193;BME280;55012;47.562;18.414;2023-03-03T14:26:12;99331.47;;;9.69;100.00
68193;BME280;55012;47.562;18.414;2023-03-03T14:28:43;99329.28;;;9.50;100.00
68193;BME280;55012;47.562;18.414;2023-03-03T14:34:08;99326.63;;;9.17;100.00
68193;BME280;55012;47.562;18.414;2023-03-03T14:36:40;99331.38;;;9.20;100.00
68193;BME280;55012;47.562;18.414;2023-03-03T14:39:32;99343.75;;;9.21;100.00
68193;BME280;55012;47.562;18.414;2023-03-03T14:41:58;99333.28;;;9.19;100.00
68193;BME280;55012;47.562;18.414;2023-03-03T14:47:22;99322.41;;;9.40;100.00
68193;BME280;55012;47.562;18.414;2023-03-03T14:49:48;99329.41;;;9.41;100.00
68193;BME280;55012;47.562;18.414;2023-03-03T14:54:42;99329.88;;;9.43;100.00
68193;BME280;55012;47.562;18.414;2023-03-03T14:57:17;99361.94;;;9.57;100.00
68193;BME280;55012;47.562;18.414;2023-03-03T15:03:04;99348.03;;;11.80;100.00
68193;BME280;55012;47.562;18.414;2023-03-03T15:05:51;99357.84;;;12.71;100.00
68193;BME280;55012;47.562;18.414;2023-03-03T15:08:38;99360.22;;;13.31;100.00
68193;BME280;55012;47.562;18.414;2023-03-03T15:13:44;99348.03;;;13.90;100.00
68193;BME280;55012;47.562;18.414;2023-03-03T15:21:32;99378.03;;;13.93;100.00
68193;BME280;55012;47.562;18.414;2023-03-03T15:24:22;99374.84;;;13.45;100.00
68193;BME280;55012;47.562;18.414;2023-03-03T15:27:03;99369.19;;;13.54;100.00
68193;BME280;55012;47.562;18.414;2023-03-03T15:35:19;99385.81;;;13.49;100.00
68193;BME280;55012;47.562;18.414;2023-03-03T15:37:58;99402.16;;;13.14;100.00
68193;BME280;55012;47.562;18.414;2023-03-03T15:40:39;99392.19;;;12.63;100.00
68193;BME280;55012;47.562;18.414;2023-03-03T15:46:13;99382.09;;;12.64;100.00
68193;BME280;55012;47.562;18.414;2023-03-03T15:49:11;99406.22;;;13.04;100.00
68193;BME280;55012;47.562;18.414;2023-03-03T15:57:35;99399.78;;;11.91;100.00
68193;BME280;55012;47.562;18.414;2023-03-03T16:02:51;99410.63;;;11.19;100.00
68193;BME280;55012;47.562;18.414;2023-03-03T16:05:25;99399.06;;;11.07;100.00
68193;BME280;55012;47.562;18.414;2023-03-03T16:08:18;99397.19;;;10.83;100.00
68193;BME280;55012;47.562;18.414;2023-03-03T16:11:03;99391.94;;;10.74;100.00
68193;BME280;55012;47.562;18.414;2023-03-03T16:22:08;99398.25;;;9.80;100.00
68193;BME280;55012;47.562;18.414;2023-03-03T16:25:25;99393.31;;;9.49;100.00
68193;BME280;55012;47.562;18.414;2023-03-03T16:36:06;99381.81;;;8.44;100.00
68193;BME280;55012;47.562;18.414;2023-03-03T16:38:49;99381.84;;;8.27;100.00
68193;BME280;55012;47.562;18.414;2023-03-03T16:41:42;99382.75;;;8.10;100.00
68193;BME280;55012;47.562;18.414;2023-03-03T16:47:43;99369.72;;;7.83;100.00
68193;BME280;55012;47.562;18.414;2023-03-03T16:49:53;99371.97;;;7.72;100.00
68193;BME280;55012;47.562;18.414;2023-03-03T16:52:36;99363.31;;;7.58;100.00
68193;BME280;55012;47.562;18.414;2023-03-03T16:55:17;99371.09;;;7.51;100.00
68193;BME280;55012;47.562;18.414;2023-03-03T16:57:56;99370.00;;;7.43;100.00
68193;BME280;55012;47.562;18.414;2023-03-03T17:00:29;99371.91;;;7.34;100.00
68193;BME280;55012;47.562;18.414;2023-03-03T17:10:51;99371.16;;;6.99;100.00
68193;BME280;55012;47.562;18.414;2023-03-03T17:16:36;99371.00;;;6.78;100.00
68193;BME280;55012;47.562;18.414;2023-03-03T17:38:40;99370.44;;;6.15;100.00
68193;BME280;55012;47.562;18.414;2023-03-03T17:43:58;99369.28;;;5.99;100.00
68193;BME280;55012;47.562;18.414;2023-03-03T17:59:49;99371.50;;;5.66;100.00
68193;BME280;55012;47.562;18.414;2023-03-03T18:02:35;99359.78;;;5.62;100.00
68193;BME280;55012;47.562;18.414;2023-03-03T18:19:11;99378.72;;;5.34;100.00
68193;BME280;55012;47.562;18.414;2023-03-03T18:24:26;99376.78;;;5.26;100.00